Terminal Aerodrome Forecast
Issued by NWS Columbia, SC

Home | Current Version | Previous Version | Text Only | Print | Product List | Glossary On
Versions: 1 2 3 4 5 6 7 8 9 10 11 12 13 14 15 16 17 18 19 20 21 22 23 24 25 26 27 28 29
726
FTUS42 KCAE 220243 AAB
TAFCAE
TAF AMD
KCAE 220243Z 2203/2224 09004KT P6SM VCSH BKN035
     FM220700 09004KT P6SM BKN025
     FM221000 09003KT 4SM BR OVC004
     FM221600 12007KT P6SM BKN015
     FM222000 11007KT P6SM SCT025 BKN045=

USA.gov is the U.S. government's official web portal to all federal, state and local government web resources and services.